Time;durP1;ratioP1;P1;durP2;ratioP2;P2;SDS_P1;SDS_P2;PMS_P1;PMS_P2;Temp;Humidity;BMP_temperature;BMP_pressure;BME280_temperature;BME280_humidity;BME280_pressure;Samples;Min_cycle;Max_cycle;Signal;HPM_P1;HPM_P2
2023/09/26 00:01:39;;;;;;;2.42;1.42;;;;;;;;;;5073437;28;20055;-58
2023/09/26 00:04:07;;;;;;;4.15;1.58;;;;;;;;;;5073040;28;20060;-58
2023/09/26 00:06:34;;;;;;;3.05;1.83;;;;;;;;;;5073169;28;20063;-58
2023/09/26 00:09:01;;;;;;;2.05;1.63;;;;;;;;;;5073279;28;20520;-58
2023/09/26 00:11:28;;;;;;;4.65;1.63;;;;;;;;;;5073390;28;20063;-58
2023/09/26 00:13:54;;;;;;;2.47;1.20;;;;;;;;;;5073335;28;20417;-58
2023/09/26 00:16:22;;;;;;;1.70;1.20;;;;;;;;;;5072727;28;20060;-58
2023/09/26 00:18:49;;;;;;;2.67;1.42;;;;;;;;;;5072951;28;20053;-58
2023/09/26 00:21:16;;;;;;;8.15;2.17;;;;;;;;;;5092619;28;20052;-57
2023/09/26 00:23:43;;;;;;;1.80;1.10;;;;;;;;;;5093395;28;20477;-59
2023/09/26 00:26:11;;;;;;;3.08;1.42;;;;;;;;;;5092873;28;20059;-58
2023/09/26 00:28:37;;;;;;;2.47;1.65;;;;;;;;;;5073702;28;20497;-58
2023/09/26 00:31:04;;;;;;;5.35;2.38;;;;;;;;;;5072740;28;20067;-58
2023/09/26 00:33:33;;;;;;;2.83;1.45;;;;;;;;;;5072794;28;20508;-58
2023/09/26 00:36:06;;;;;;;3.25;1.10;;;;;;;;;;5074872;28;20063;-58
2023/09/26 00:38:33;;;;;;;2.83;1.70;;;;;;;;;;5093131;28;20055;-58
2023/09/26 00:40:59;;;;;;;2.53;1.63;;;;;;;;;;5092533;28;20378;-57
2023/09/26 00:43:26;;;;;;;3.80;1.88;;;;;;;;;;5090575;28;20056;-59
2023/09/26 00:45:55;;;;;;;2.75;1.30;;;;;;;;;;5092476;28;20052;-57
2023/09/26 00:48:22;;;;;;;3.55;1.40;;;;;;;;;;5086271;28;20406;-58
2023/09/26 00:50:51;;;;;;;1.77;1.10;;;;;;;;;;5092564;28;20075;-58
2023/09/26 00:53:18;;;;;;;2.22;1.30;;;;;;;;;;5091902;28;20078;-58
2023/09/26 00:55:45;;;;;;;1.85;1.00;;;;;;;;;;5092791;28;20134;-58
2023/09/26 00:58:12;;;;;;;2.35;1.30;;;;;;;;;;5090129;28;20048;-58
2023/09/26 01:00:39;;;;;;;2.20;1.40;;;;;;;;;;5092575;28;20056;-58
2023/09/26 01:03:06;;;;;;;2.38;1.20;;;;;;;;;;5093042;28;20059;-58
2023/09/26 01:05:33;;;;;;;1.92;1.20;;;;;;;;;;5092533;28;20052;-58
2023/09/26 01:08:01;;;;;;;3.63;1.50;;;;;;;;;;5092574;28;20043;-58
2023/09/26 01:10:28;;;;;;;2.10;1.45;;;;;;;;;;5092574;28;20130;-58
2023/09/26 01:12:55;;;;;;;2.08;1.33;;;;;;;;;;5090188;28;20055;-60
2023/09/26 01:15:31;;;;;;;4.10;1.48;;;;;;;;;;5069788;28;20417;-58
2023/09/26 01:17:58;;;;;;;1.75;1.35;;;;;;;;;;5072325;28;20402;-58
2023/09/26 01:20:25;;;;;;;2.50;1.30;;;;;;;;;;5072562;28;20418;-58
2023/09/26 01:22:53;;;;;;;2.13;1.40;;;;;;;;;;5072768;28;20059;-57
2023/09/26 01:25:21;;;;;;;2.13;1.20;;;;;;;;;;5072597;28;20059;-57
2023/09/26 01:27:48;;;;;;;2.50;1.80;;;;;;;;;;5073131;28;20049;-58
2023/09/26 01:30:16;;;;;;;3.08;2.00;;;;;;;;;;5071941;28;20071;-58
2023/09/26 01:32:43;;;;;;;2.10;1.38;;;;;;;;;;5072277;28;20055;-58
2023/09/26 01:35:10;;;;;;;2.88;1.63;;;;;;;;;;5071984;28;20067;-57
2023/09/26 01:37:37;;;;;;;2.00;1.15;;;;;;;;;;5072261;28;20500;-57
2023/09/26 01:40:09;;;;;;;2.42;1.50;;;;;;;;;;5072246;28;20482;-57
2023/09/26 01:42:38;;;;;;;2.35;1.42;;;;;;;;;;5072691;28;20225;-58
2023/09/26 01:45:05;;;;;;;2.72;1.60;;;;;;;;;;5076495;28;20052;-58
2023/09/26 01:47:36;;;;;;;2.45;1.30;;;;;;;;;;5092361;28;20055;-58
2023/09/26 01:50:03;;;;;;;3.33;1.38;;;;;;;;;;5092250;28;20055;-58
2023/09/26 01:52:32;;;;;;;2.15;1.40;;;;;;;;;;5092259;28;20063;-58
2023/09/26 01:54:59;;;;;;;2.55;1.80;;;;;;;;;;5092244;28;20056;-58
2023/09/26 01:57:25;;;;;;;2.55;1.35;;;;;;;;;;5086733;28;20067;-59
2023/09/26 01:59:53;;;;;;;2.00;1.23;;;;;;;;;;5072104;28;20045;-58
2023/09/26 02:02:20;;;;;;;5.22;1.90;;;;;;;;;;5072044;28;20056;-58
2023/09/26 02:04:47;;;;;;;3.60;2.28;;;;;;;;;;5073041;28;20063;-58
2023/09/26 02:07:14;;;;;;;2.75;1.60;;;;;;;;;;5075433;28;20067;-58
2023/09/26 02:09:41;;;;;;;3.17;1.98;;;;;;;;;;5075603;28;20052;-59
2023/09/26 02:12:07;;;;;;;3.10;1.60;;;;;;;;;;5076601;28;20079;-58
2023/09/26 02:14:34;;;;;;;2.40;1.52;;;;;;;;;;5075196;28;20063;-58
2023/09/26 02:17:03;;;;;;;1.98;1.15;;;;;;;;;;5075439;28;20410;-58
2023/09/26 02:19:30;;;;;;;2.75;1.80;;;;;;;;;;5075189;28;20055;-58
2023/09/26 02:21:57;;;;;;;2.03;1.27;;;;;;;;;;5075139;28;20492;-58
2023/09/26 02:24:24;;;;;;;2.30;1.58;;;;;;;;;;5075148;28;20075;-58
2023/09/26 02:26:51;;;;;;;3.15;1.77;;;;;;;;;;5075647;28;20379;-58
2023/09/26 02:29:17;;;;;;;1.92;1.30;;;;;;;;;;5093879;28;20500;-58
2023/09/26 02:31:44;;;;;;;2.05;1.58;;;;;;;;;;5095361;28;20051;-58
2023/09/26 02:34:13;;;;;;;2.58;1.30;;;;;;;;;;5095362;28;20524;-58
2023/09/26 02:36:40;;;;;;;2.92;1.45;;;;;;;;;;5095145;28;20059;-59
2023/09/26 02:39:08;;;;;;;3.47;1.38;;;;;;;;;;5094675;28;20048;-58
2023/09/26 02:41:34;;;;;;;3.47;1.55;;;;;;;;;;5094182;28;20056;-59
2023/09/26 02:44:03;;;;;;;2.40;1.58;;;;;;;;;;5074468;28;20060;-58
2023/09/26 02:46:30;;;;;;;2.20;1.50;;;;;;;;;;5074774;28;20053;-59
2023/09/26 02:48:57;;;;;;;2.22;1.38;;;;;;;;;;5082967;28;20048;-59
2023/09/26 02:51:25;;;;;;;2.53;1.27;;;;;;;;;;5095024;28;20059;-58
2023/09/26 02:53:52;;;;;;;3.42;1.85;;;;;;;;;;5094486;28;20059;-58
2023/09/26 02:56:18;;;;;;;6.30;1.30;;;;;;;;;;5093517;28;20048;-58
2023/09/26 02:58:45;;;;;;;1.95;1.20;;;;;;;;;;5091760;28;20452;-58
2023/09/26 03:01:15;;;;;;;2.55;1.40;;;;;;;;;;5094724;28;20052;-59
2023/09/26 03:03:42;;;;;;;4.22;2.33;;;;;;;;;;5074809;28;20431;-58
2023/09/26 03:06:08;;;;;;;2.28;1.60;;;;;;;;;;5074326;28;20056;-58
2023/09/26 03:08:37;;;;;;;2.08;1.30;;;;;;;;;;5074450;28;20052;-59
2023/09/26 03:11:06;;;;;;;3.72;1.63;;;;;;;;;;5092411;28;20075;-58
2023/09/26 03:13:34;;;;;;;2.70;1.75;;;;;;;;;;5077296;28;20053;-58
2023/09/26 03:16:01;;;;;;;2.65;1.55;;;;;;;;;;5074021;28;20055;-59
2023/09/26 03:18:28;;;;;;;2.75;1.52;;;;;;;;;;5074334;28;20067;-58
2023/09/26 03:20:56;;;;;;;3.20;2.25;;;;;;;;;;5074272;28;20477;-58
2023/09/26 03:23:24;;;;;;;2.38;1.50;;;;;;;;;;5074239;28;20059;-58
2023/09/26 03:25:52;;;;;;;2.45;1.40;;;;;;;;;;5074296;28;20489;-58
2023/09/26 03:28:19;;;;;;;2.08;1.52;;;;;;;;;;5089036;28;20044;-58
2023/09/26 03:30:46;;;;;;;2.67;1.33;;;;;;;;;;5094019;28;20052;-58
2023/09/26 03:33:13;;;;;;;2.38;1.70;;;;;;;;;;5094290;28;20425;-58
2023/09/26 03:35:40;;;;;;;2.53;1.63;;;;;;;;;;5094164;28;20052;-58
2023/09/26 03:38:06;;;;;;;2.28;1.52;;;;;;;;;;5094131;28;20499;-58
2023/09/26 03:40:33;;;;;;;2.85;1.70;;;;;;;;;;5094146;28;20477;-58
2023/09/26 03:43:01;;;;;;;4.20;2.28;;;;;;;;;;5083590;28;20073;-58
2023/09/26 03:45:28;;;;;;;2.38;1.48;;;;;;;;;;5093301;28;20059;-58
2023/09/26 03:47:55;;;;;;;3.42;1.77;;;;;;;;;;5093944;28;20048;-58
2023/09/26 03:50:22;;;;;;;4.20;1.80;;;;;;;;;;5093789;28;20497;-58
2023/09/26 03:52:48;;;;;;;2.40;1.52;;;;;;;;;;5093973;28;20485;-58
2023/09/26 03:55:15;;;;;;;1.92;1.35;;;;;;;;;;5093772;28;20059;-58
2023/09/26 03:57:42;;;;;;;4.18;2.25;;;;;;;;;;5081582;28;20502;-58
2023/09/26 04:00:15;;;;;;;2.70;1.92;;;;;;;;;;5075151;28;20052;-58
2023/09/26 04:02:42;;;;;;;3.05;1.77;;;;;;;;;;5073236;28;20052;-58
2023/09/26 04:05:09;;;;;;;2.70;1.50;;;;;;;;;;5073336;28;20064;-59
2023/09/26 04:07:36;;;;;;;2.72;1.52;;;;;;;;;;5073781;28;20052;-58
2023/09/26 04:10:05;;;;;;;3.63;1.80;;;;;;;;;;5072728;28;20394;-58
2023/09/26 04:12:32;;;;;;;3.35;2.13;;;;;;;;;;5077311;28;20501;-58
2023/09/26 04:14:59;;;;;;;2.13;1.25;;;;;;;;;;5073078;28;20063;-58
2023/09/26 04:17:28;;;;;;;4.60;2.00;;;;;;;;;;5073351;28;20052;-58
2023/09/26 04:19:55;;;;;;;2.10;1.25;;;;;;;;;;5073485;28;20040;-58
2023/09/26 04:22:22;;;;;;;2.55;1.38;;;;;;;;;;5073830;28;20052;-58
2023/09/26 04:24:49;;;;;;;3.08;1.60;;;;;;;;;;5072894;28;20061;-57
2023/09/26 04:27:16;;;;;;;2.83;1.60;;;;;;;;;;5073114;28;20500;-58
2023/09/26 04:29:42;;;;;;;2.67;1.55;;;;;;;;;;5072856;28;20057;-58
2023/09/26 04:32:11;;;;;;;3.17;2.00;;;;;;;;;;5073140;28;20469;-59
2023/09/26 04:34:39;;;;;;;2.92;2.03;;;;;;;;;;5072873;28;20060;-58
2023/09/26 04:37:07;;;;;;;2.70;1.60;;;;;;;;;;5072747;28;20501;-58
2023/09/26 04:39:34;;;;;;;3.05;1.40;;;;;;;;;;5073716;28;20049;-58
2023/09/26 04:42:00;;;;;;;3.13;1.67;;;;;;;;;;5080691;28;20155;-59
2023/09/26 04:44:27;;;;;;;2.13;1.33;;;;;;;;;;5073234;28;20424;-58
2023/09/26 04:46:54;;;;;;;2.97;1.70;;;;;;;;;;5073850;28;20079;-58
2023/09/26 04:49:21;;;;;;;3.35;1.90;;;;;;;;;;5092049;28;20059;-58
2023/09/26 04:51:49;;;;;;;4.30;2.10;;;;;;;;;;5075060;28;20053;-58
2023/09/26 04:54:16;;;;;;;4.18;2.45;;;;;;;;;;5080012;28;20051;-58
2023/09/26 04:56:43;;;;;;;2.55;1.75;;;;;;;;;;5076866;28;20064;-59
2023/09/26 04:59:10;;;;;;;3.45;1.60;;;;;;;;;;5091829;28;20417;-58
2023/09/26 05:01:37;;;;;;;3.97;1.80;;;;;;;;;;5092201;28;20056;-58
2023/09/26 05:04:04;;;;;;;2.95;1.67;;;;;;;;;;5092335;28;20056;-58
2023/09/26 05:06:31;;;;;;;2.13;1.60;;;;;;;;;;5090666;28;20055;-58
2023/09/26 05:08:59;;;;;;;3.33;2.10;;;;;;;;;;5088992;28;20055;-58
2023/09/26 05:11:27;;;;;;;1.80;1.30;;;;;;;;;;5075843;28;20049;-58
2023/09/26 05:13:54;;;;;;;2.88;1.60;;;;;;;;;;5075918;28;20067;-59
2023/09/26 05:16:21;;;;;;;3.13;1.70;;;;;;;;;;5081544;28;20420;-58
2023/09/26 05:18:48;;;;;;;2.10;1.60;;;;;;;;;;5078144;28;20063;-59
2023/09/26 05:21:14;;;;;;;2.70;1.75;;;;;;;;;;5072098;28;20082;-58
2023/09/26 05:23:41;;;;;;;2.90;1.88;;;;;;;;;;5079671;28;20052;-59
2023/09/26 05:26:10;;;;;;;2.38;1.73;;;;;;;;;;5074346;28;20064;-59
2023/09/26 05:28:37;;;;;;;3.10;1.70;;;;;;;;;;5072178;28;20481;-59
2023/09/26 05:31:04;;;;;;;3.33;1.70;;;;;;;;;;5072197;28;20048;-58
2023/09/26 05:33:31;;;;;;;8.13;2.47;;;;;;;;;;5085259;28;20048;-58
2023/09/26 05:35:58;;;;;;;3.50;1.70;;;;;;;;;;5086464;28;20063;-58
2023/09/26 05:38:25;;;;;;;3.80;2.38;;;;;;;;;;5089036;28;20059;-58
2023/09/26 05:40:52;;;;;;;2.75;2.05;;;;;;;;;;5087523;28;20048;-58
2023/09/26 05:43:21;;;;;;;3.42;1.75;;;;;;;;;;5080676;28;20055;-58
2023/09/26 05:45:48;;;;;;;2.20;1.45;;;;;;;;;;5082378;28;20054;-59
2023/09/26 05:48:15;;;;;;;2.33;1.42;;;;;;;;;;5083480;28;20048;-58
2023/09/26 05:50:42;;;;;;;4.82;1.88;;;;;;;;;;5093788;28;20048;-58
2023/09/26 05:53:09;;;;;;;3.20;1.77;;;;;;;;;;5075655;28;20053;-59
2023/09/26 05:55:35;;;;;;;2.13;1.50;;;;;;;;;;5089677;28;20401;-58
2023/09/26 05:58:02;;;;;;;3.22;1.95;;;;;;;;;;5078711;28;20059;-58
2023/09/26 06:00:30;;;;;;;3.50;2.13;;;;;;;;;;5084926;28;20044;-59
2023/09/26 06:02:57;;;;;;;6.50;1.70;;;;;;;;;;5075635;28;20048;-58
2023/09/26 06:05:24;;;;;;;2.70;1.80;;;;;;;;;;5077279;28;20053;-60
2023/09/26 06:07:51;;;;;;;3.70;1.92;;;;;;;;;;5077694;28;20481;-59
2023/09/26 06:10:19;;;;;;;2.53;1.75;;;;;;;;;;5085679;28;20529;-60
2023/09/26 06:12:45;;;;;;;2.85;2.05;;;;;;;;;;5078116;28;20482;-59
2023/09/26 06:15:12;;;;;;;3.63;1.85;;;;;;;;;;5076180;28;20504;-59
2023/09/26 06:17:43;;;;;;;2.42;1.60;;;;;;;;;;5078910;28;20409;-59
2023/09/26 06:20:10;;;;;;;5.03;2.70;;;;;;;;;;5076156;28;20508;-59
2023/09/26 06:22:37;;;;;;;3.85;2.00;;;;;;;;;;5083257;28;20055;-59
2023/09/26 06:25:04;;;;;;;5.20;2.63;;;;;;;;;;5084352;28;20118;-60
2023/09/26 06:27:33;;;;;;;5.90;2.30;;;;;;;;;;5074012;28;20053;-59
2023/09/26 06:30:00;;;;;;;7.32;2.10;;;;;;;;;;5075268;28;20049;-59
2023/09/26 06:32:27;;;;;;;3.38;1.80;;;;;;;;;;5075318;28;20469;-60
2023/09/26 06:34:58;;;;;;;4.43;2.15;;;;;;;;;;5074187;28;20057;-59
2023/09/26 06:37:25;;;;;;;3.33;2.05;;;;;;;;;;5093936;28;20059;-66
2023/09/26 06:39:52;;;;;;;5.07;1.73;;;;;;;;;;5093218;28;20048;-66
2023/09/26 06:42:19;;;;;;;4.90;1.98;;;;;;;;;;5090907;28;20481;-67
2023/09/26 06:44:45;;;;;;;4.47;2.28;;;;;;;;;;5074745;28;20547;-65
2023/09/26 06:47:12;;;;;;;4.05;2.45;;;;;;;;;;5075239;28;20405;-63
2023/09/26 06:49:39;;;;;;;2.80;1.90;;;;;;;;;;5074740;28;20048;-63
2023/09/26 06:52:07;;;;;;;2.95;1.85;;;;;;;;;;5074658;28;20056;-65
2023/09/26 06:54:34;;;;;;;3.83;2.55;;;;;;;;;;5074860;28;20057;-60
2023/09/26 06:57:01;;;;;;;7.05;2.40;;;;;;;;;;5095101;28;20513;-57
2023/09/26 06:59:28;;;;;;;4.97;1.80;;;;;;;;;;5094917;28;20378;-58
2023/09/26 07:01:54;;;;;;;3.22;2.00;;;;;;;;;;5088384;28;20374;-59
2023/09/26 07:04:21;;;;;;;3.42;1.88;;;;;;;;;;5092129;28;20067;-58
2023/09/26 07:06:48;;;;;;;2.60;1.80;;;;;;;;;;5094824;28;20048;-58
2023/09/26 07:09:16;;;;;;;3.70;1.60;;;;;;;;;;5094816;28;20068;-59
2023/09/26 07:11:43;;;;;;;2.15;1.38;;;;;;;;;;5077422;28;20131;-58
2023/09/26 07:14:10;;;;;;;4.35;1.95;;;;;;;;;;5074075;28;20056;-59
2023/09/26 07:16:37;;;;;;;6.43;1.98;;;;;;;;;;5074242;28;20057;-59
2023/09/26 07:19:04;;;;;;;2.22;1.60;;;;;;;;;;5074213;28;20052;-59
2023/09/26 07:21:30;;;;;;;3.05;2.05;;;;;;;;;;5081231;28;20052;-58
2023/09/26 07:23:59;;;;;;;4.05;2.55;;;;;;;;;;5094034;28;20396;-59
2023/09/26 07:26:28;;;;;;;4.57;2.03;;;;;;;;;;5092417;28;20052;-59
2023/09/26 07:28:55;;;;;;;4.25;1.80;;;;;;;;;;5094493;28;20052;-60
2023/09/26 07:31:23;;;;;;;3.63;2.05;;;;;;;;;;5084133;28;20599;-58
2023/09/26 07:33:50;;;;;;;3.83;1.90;;;;;;;;;;5074046;28;20048;-58
2023/09/26 07:36:17;;;;;;;2.38;1.58;;;;;;;;;;5073888;28;20048;-57
2023/09/26 07:38:44;;;;;;;5.88;1.95;;;;;;;;;;5080917;28;20060;-58
2023/09/26 07:41:12;;;;;;;3.60;1.73;;;;;;;;;;5090867;28;20063;-60
2023/09/26 07:43:40;;;;;;;4.63;2.30;;;;;;;;;;5093960;28;20055;-59
2023/09/26 07:46:07;;;;;;;3.75;2.13;;;;;;;;;;5094173;28;20063;-59
2023/09/26 07:48:34;;;;;;;3.88;2.20;;;;;;;;;;5093821;28;20489;-59
2023/09/26 07:51:01;;;;;;;3.75;2.15;;;;;;;;;;5093926;28;20044;-59
2023/09/26 07:53:27;;;;;;;3.35;2.05;;;;;;;;;;5093537;28;20052;-59
2023/09/26 07:55:55;;;;;;;2.63;1.85;;;;;;;;;;5077576;28;20075;-59
2023/09/26 07:58:22;;;;;;;2.65;1.75;;;;;;;;;;5073731;28;20056;-58
2023/09/26 08:00:50;;;;;;;2.67;1.77;;;;;;;;;;5073737;28;20508;-58
2023/09/26 08:03:17;;;;;;;2.92;1.83;;;;;;;;;;5072681;28;20060;-59
2023/09/26 08:05:44;;;;;;;3.70;2.03;;;;;;;;;;5073659;28;20063;-58
2023/09/26 08:08:11;;;;;;;3.72;1.75;;;;;;;;;;5073738;28;20500;-59
2023/09/26 08:10:38;;;;;;;2.47;1.70;;;;;;;;;;5088467;28;20044;-58
2023/09/26 08:13:06;;;;;;;3.47;1.87;;;;;;;;;;5093832;28;20055;-58
2023/09/26 08:15:34;;;;;;;1.48;0.93;;;;;;;;;;5092611;28;20409;-58
2023/09/26 08:18:02;;;;;;;2.20;1.60;;;;;;;;;;5093696;28;20052;-58
2023/09/26 08:20:29;;;;;;;2.05;1.15;;;;;;;;;;5093142;28;20052;-57
2023/09/26 08:22:55;;;;;;;2.75;1.60;;;;;;;;;;5093502;28;20048;-59
2023/09/26 08:25:22;;;;;;;2.20;1.80;;;;;;;;;;5081526;28;20063;-59
2023/09/26 08:27:49;;;;;;;2.63;1.20;;;;;;;;;;5072788;28;20470;-59
2023/09/26 08:30:16;;;;;;;1.92;1.38;;;;;;;;;;5073295;28;20048;-58
2023/09/26 08:32:43;;;;;;;3.70;1.55;;;;;;;;;;5072893;28;20063;-58
2023/09/26 08:35:11;;;;;;;2.87;1.53;;;;;;;;;;5073119;28;20063;-58
2023/09/26 08:37:38;;;;;;;3.00;1.40;;;;;;;;;;5072904;28;20063;-57
2023/09/26 08:40:06;;;;;;;2.78;1.52;;;;;;;;;;5073502;28;20053;-58
2023/09/26 08:42:36;;;;;;;3.05;1.85;;;;;;;;;;5072664;28;20432;-60
2023/09/26 08:45:03;;;;;;;1.70;1.30;;;;;;;;;;5082707;28;20060;-57
2023/09/26 08:47:30;;;;;;;3.75;1.60;;;;;;;;;;5093106;28;20055;-57
2023/09/26 08:49:57;;;;;;;3.40;1.57;;;;;;;;;;5092643;28;20056;-58
2023/09/26 08:52:26;;;;;;;2.33;1.27;;;;;;;;;;5093110;28;20504;-58
2023/09/26 08:54:53;;;;;;;3.03;1.20;;;;;;;;;;5090398;28;20047;-58
2023/09/26 08:57:20;;;;;;;4.10;1.27;;;;;;;;;;5093059;28;20052;-58
2023/09/26 08:59:48;;;;;;;2.63;1.23;;;;;;;;;;5092588;28;20059;-59
2023/09/26 09:02:15;;;;;;;2.42;1.52;;;;;;;;;;5092761;28;20052;-58
2023/09/26 09:04:42;;;;;;;1.95;1.42;;;;;;;;;;5092791;28;20051;-58
2023/09/26 09:07:09;;;;;;;1.80;1.13;;;;;;;;;;5092311;28;20048;-57
2023/09/26 09:09:38;;;;;;;2.85;1.20;;;;;;;;;;5085310;28;20379;-57
2023/09/26 09:12:21;;;;;;;2.00;1.25;;;;;;;;;;5077776;28;20040;-56
2023/09/26 09:14:48;;;;;;;2.08;1.38;;;;;;;;;;5096107;28;20059;-57
2023/09/26 09:17:15;;;;;;;2.70;1.60;;;;;;;;;;5096605;28;20059;-58
2023/09/26 09:19:45;;;;;;;2.23;1.10;;;;;;;;;;5096671;28;20504;-57
2023/09/26 09:22:15;;;;;;;3.58;1.20;;;;;;;;;;5094403;28;20055;-58
2023/09/26 09:24:43;;;;;;;3.13;1.27;;;;;;;;;;5076912;28;20053;-59
2023/09/26 09:27:10;;;;;;;1.80;1.00;;;;;;;;;;5076631;28;20398;-58
2023/09/26 09:29:37;;;;;;;2.40;0.93;;;;;;;;;;5076713;28;20063;-58
2023/09/26 09:32:07;;;;;;;1.90;1.20;;;;;;;;;;5076449;28;20393;-58
2023/09/26 09:34:35;;;;;;;1.38;1.00;;;;;;;;;;5076187;28;20489;-58
2023/09/26 09:37:02;;;;;;;2.03;1.05;;;;;;;;;;5076566;28;20056;-58
2023/09/26 09:39:29;;;;;;;1.63;0.90;;;;;;;;;;5082060;28;20052;-58
2023/09/26 09:41:58;;;;;;;1.90;1.20;;;;;;;;;;5086130;28;20048;-58
2023/09/26 09:44:26;;;;;;;2.67;1.17;;;;;;;;;;5082321;28;20059;-58
2023/09/26 09:46:56;;;;;;;1.90;1.13;;;;;;;;;;5092942;28;20055;-58
2023/09/26 09:49:24;;;;;;;2.42;1.48;;;;;;;;;;5096055;28;20068;-58
2023/09/26 09:51:52;;;;;;;2.00;0.90;;;;;;;;;;5096120;28;20059;-58
2023/09/26 09:54:21;;;;;;;3.28;1.20;;;;;;;;;;5085139;28;20478;-59
2023/09/26 09:56:48;;;;;;;2.28;0.90;;;;;;;;;;5075950;28;20076;-57
2023/09/26 09:59:16;;;;;;;2.03;1.10;;;;;;;;;;5075714;28;20057;-58
2023/09/26 10:01:44;;;;;;;1.55;1.08;;;;;;;;;;5075779;28;20052;-58
2023/09/26 10:04:11;;;;;;;;;;;;;;;;;;5076597;28;20405;-58
2023/09/26 10:06:38;;;;;;;3.65;1.10;;;;;;;;;;5076775;28;19920;-58
2023/09/26 10:09:06;;;;;;;2.35;0.85;;;;;;;;;;5076474;28;20071;-58
2023/09/26 10:11:34;;;;;;;4.32;1.10;;;;;;;;;;5094643;28;20055;-58
2023/09/26 10:14:03;;;;;;;2.60;1.00;;;;;;;;;;5093731;28;20050;-58
2023/09/26 10:16:31;;;;;;;2.60;1.42;;;;;;;;;;5075786;28;20052;-58
2023/09/26 10:18:59;;;;;;;1.88;1.00;;;;;;;;;;5075508;28;20052;-58
2023/09/26 10:21:27;;;;;;;1.50;0.95;;;;;;;;;;5089229;28;20055;-58
2023/09/26 10:24:12;;;;;;;2.10;1.05;;;;;;;;;;5093400;28;20051;-58
2023/09/26 10:26:40;;;;;;;1.60;1.10;;;;;;;;;;5092272;28;20512;-58
2023/09/26 10:29:07;;;;;;;1.30;0.70;;;;;;;;;;5074992;28;20497;-58
2023/09/26 10:31:36;;;;;;;3.33;1.13;;;;;;;;;;5075051;28;20053;-58
2023/09/26 10:34:03;;;;;;;2.00;1.27;;;;;;;;;;5090510;28;20059;-59
2023/09/26 10:36:29;;;;;;;1.70;1.17;;;;;;;;;;5095073;28;20063;-58
2023/09/26 10:38:59;;;;;;;1.92;0.88;;;;;;;;;;5093274;28;20485;-58
2023/09/26 10:41:26;;;;;;;1.60;0.85;;;;;;;;;;5094896;28;20055;-58
2023/09/26 10:43:53;;;;;;;;;;;;;;;;;;5095210;28;20066;-58
2023/09/26 10:46:20;;;;;;;2.22;1.00;;;;;;;;;;5095063;28;20034;-59
2023/09/26 10:48:48;;;;;;;3.10;1.00;;;;;;;;;;5095138;28;20052;-59
2023/09/26 10:51:15;;;;;;;1.33;0.93;;;;;;;;;;5094889;28;20061;-58
2023/09/26 10:53:42;;;;;;;1.30;0.70;;;;;;;;;;5093218;28;20104;-59
2023/09/26 10:56:09;;;;;;;1.70;1.00;;;;;;;;;;5074721;28;20052;-58
2023/09/26 10:58:36;;;;;;;1.40;0.88;;;;;;;;;;5074949;28;20063;-59
2023/09/26 11:01:03;;;;;;;1.30;0.80;;;;;;;;;;5074125;28;20048;-59
2023/09/26 11:03:30;;;;;;;2.30;1.13;;;;;;;;;;5074633;28;20049;-58
2023/09/26 11:05:58;;;;;;;1.35;0.82;;;;;;;;;;5074688;28;20425;-58
2023/09/26 11:08:25;;;;;;;1.25;0.80;;;;;;;;;;5074349;28;20429;-58
2023/09/26 11:10:52;;;;;;;1.10;0.60;;;;;;;;;;5090448;28;20055;-58
2023/09/26 11:13:19;;;;;;;1.80;0.85;;;;;;;;;;5094426;28;20059;-58
2023/09/26 11:15:46;;;;;;;1.52;0.85;;;;;;;;;;5094001;28;20055;-57
2023/09/26 11:18:13;;;;;;;2.72;0.98;;;;;;;;;;5094739;28;20048;-58
2023/09/26 11:20:40;;;;;;;1.83;0.95;;;;;;;;;;5094371;28;20047;-59
2023/09/26 11:23:08;;;;;;;2.13;1.08;;;;;;;;;;5094606;28;20366;-59
2023/09/26 11:25:36;;;;;;;1.55;0.90;;;;;;;;;;5091435;28;20060;-59
2023/09/26 11:28:03;;;;;;;0.90;0.60;;;;;;;;;;5094403;28;20469;-60
2023/09/26 11:30:30;;;;;;;1.27;0.63;;;;;;;;;;5094004;28;20059;-58
2023/09/26 11:32:57;;;;;;;;;;;;;;;;;;5086216;28;20056;-58
2023/09/26 11:35:25;;;;;;;0.93;0.50;;;;;;;;;;5073911;28;20282;-58
2023/09/26 11:37:53;;;;;;;1.40;0.85;;;;;;;;;;5073831;28;20059;-59
2023/09/26 11:40:24;;;;;;;1.10;0.70;;;;;;;;;;5083131;28;20063;-59
2023/09/26 11:42:55;;;;;;;1.52;0.63;;;;;;;;;;5074066;28;20053;-59
2023/09/26 11:45:22;;;;;;;1.10;0.70;;;;;;;;;;5073604;28;20067;-59
2023/09/26 11:47:49;;;;;;;1.00;0.70;;;;;;;;;;5074066;28;20056;-59
2023/09/26 11:50:16;;;;;;;1.33;0.90;;;;;;;;;;5073531;28;20414;-59
2023/09/26 11:52:43;;;;;;;2.38;0.80;;;;;;;;;;5073683;28;20049;-59
2023/09/26 11:55:10;;;;;;;1.65;0.80;;;;;;;;;;5074324;28;20056;-59
2023/09/26 11:57:38;;;;;;;1.85;1.00;;;;;;;;;;5073831;28;20059;-60
2023/09/26 12:00:11;;;;;;;1.40;0.90;;;;;;;;;;5072941;28;20060;-59
2023/09/26 12:02:39;;;;;;;0.85;0.65;;;;;;;;;;5073496;28;20052;-59
2023/09/26 12:05:06;;;;;;;1.77;0.73;;;;;;;;;;5073601;28;20433;-59
2023/09/26 12:07:33;;;;;;;1.63;0.80;;;;;;;;;;5073270;28;20418;-59
2023/09/26 12:10:00;;;;;;;0.90;0.50;;;;;;;;;;5074106;28;20470;-59
2023/09/26 12:12:27;;;;;;;2.58;0.90;;;;;;;;;;5083748;28;20048;-59
2023/09/26 12:15:15;;;;;;;1.30;0.82;;;;;;;;;;5093721;28;20059;-59
2023/09/26 12:17:42;;;;;;;1.65;0.80;;;;;;;;;;5093587;28;20473;-59
2023/09/26 12:20:09;;;;;;;2.25;1.10;;;;;;;;;;5093531;28;20119;-59
2023/09/26 12:22:36;;;;;;;0.95;0.60;;;;;;;;;;5093315;28;20059;-59
2023/09/26 12:25:03;;;;;;;1.23;0.85;;;;;;;;;;5091225;28;20052;-59
2023/09/26 12:27:30;;;;;;;1.53;0.83;;;;;;;;;;5075979;28;20060;-59
2023/09/26 12:29:59;;;;;;;1.65;0.70;;;;;;;;;;5073139;28;20471;-59
2023/09/26 12:32:26;;;;;;;1.20;0.70;;;;;;;;;;5091520;28;20422;-58
2023/09/26 12:34:52;;;;;;;1.30;0.80;;;;;;;;;;5093043;28;20146;-58
2023/09/26 12:37:19;;;;;;;1.75;1.00;;;;;;;;;;5093158;28;20055;-59
2023/09/26 12:39:46;;;;;;;1.30;0.80;;;;;;;;;;5092255;28;20052;-58
2023/09/26 12:42:13;;;;;;;3.08;0.77;;;;;;;;;;5091935;28;20059;-58
2023/09/26 12:44:40;;;;;;;1.75;1.00;;;;;;;;;;5092681;28;20063;-58
2023/09/26 12:47:09;;;;;;;1.10;0.70;;;;;;;;;;5093156;28;20127;-58
2023/09/26 12:49:36;;;;;;;1.27;0.63;;;;;;;;;;5091875;28;20129;-57
2023/09/26 12:52:03;;;;;;;1.75;1.00;;;;;;;;;;5077245;28;20057;-58
2023/09/26 12:54:30;;;;;;;1.55;1.00;;;;;;;;;;5072690;28;20049;-58
2023/09/26 12:57:01;;;;;;;1.75;1.13;;;;;;;;;;5073714;28;20049;-58
2023/09/26 12:59:28;;;;;;;1.45;0.80;;;;;;;;;;5072850;28;20056;-58
2023/09/26 13:01:54;;;;;;;1.50;0.83;;;;;;;;;;5072876;28;20055;-59
2023/09/26 13:04:23;;;;;;;1.48;1.05;;;;;;;;;;5072784;28;20436;-60
2023/09/26 13:06:50;;;;;;;1.20;0.90;;;;;;;;;;5072945;28;20053;-58
2023/09/26 13:09:17;;;;;;;2.15;0.93;;;;;;;;;;5072638;28;20056;-58
2023/09/26 13:11:44;;;;;;;1.42;0.90;;;;;;;;;;5073317;28;20056;-58
2023/09/26 13:14:10;;;;;;;1.30;0.80;;;;;;;;;;5072715;28;20051;-59
2023/09/26 13:16:37;;;;;;;1.30;0.82;;;;;;;;;;5072706;28;20063;-59
2023/09/26 13:19:04;;;;;;;1.20;0.77;;;;;;;;;;5072439;28;20402;-59
2023/09/26 13:21:32;;;;;;;2.88;1.17;;;;;;;;;;5079889;28;20386;-58
2023/09/26 13:23:59;;;;;;;;;;;;;;;;;;5092968;28;20044;-58
2023/09/26 13:26:25;;;;;;;2.50;1.23;;;;;;;;;;5088437;28;19927;-58
2023/09/26 13:28:52;;;;;;;1.30;0.90;;;;;;;;;;5080267;28;20055;-58
2023/09/26 13:31:20;;;;;;;1.50;1.00;;;;;;;;;;5072443;28;20052;-58
2023/09/26 13:33:47;;;;;;;2.13;1.20;;;;;;;;;;5072331;28;20064;-59
2023/09/26 13:36:14;;;;;;;1.40;0.80;;;;;;;;;;5072481;28;20060;-58
2023/09/26 13:38:42;;;;;;;2.90;0.90;;;;;;;;;;5072559;28;20052;-57
2023/09/26 13:41:09;;;;;;;1.40;0.98;;;;;;;;;;5077289;28;20051;-58
2023/09/26 13:43:35;;;;;;;1.33;0.82;;;;;;;;;;5091998;28;20044;-58
2023/09/26 13:46:02;;;;;;;1.48;0.75;;;;;;;;;;5092397;28;20409;-57
2023/09/26 13:48:29;;;;;;;1.63;0.93;;;;;;;;;;5092461;28;20052;-59
2023/09/26 13:50:56;;;;;;;1.48;0.88;;;;;;;;;;5092148;28;20052;-59
2023/09/26 13:53:24;;;;;;;2.75;0.95;;;;;;;;;;5091975;28;20055;-58
2023/09/26 13:55:52;;;;;;;1.00;0.73;;;;;;;;;;5089444;28;20052;-59
2023/09/26 13:58:19;;;;;;;2.22;1.08;;;;;;;;;;5091787;28;20515;-58
2023/09/26 14:00:46;;;;;;;1.08;0.60;;;;;;;;;;5095408;28;20059;-57
2023/09/26 14:03:13;;;;;;;1.73;0.77;;;;;;;;;;5096252;28;20048;-58
2023/09/26 14:05:39;;;;;;;1.83;1.08;;;;;;;;;;5095605;28;20052;-58
2023/09/26 14:08:06;;;;;;;1.55;0.93;;;;;;;;;;5096187;28;20052;-58
2023/09/26 14:10:33;;;;;;;1.05;0.60;;;;;;;;;;5094134;28;20048;-59
2023/09/26 14:13:03;;;;;;;1.25;0.80;;;;;;;;;;5096048;28;20389;-58
2023/09/26 14:15:30;;;;;;;1.98;1.10;;;;;;;;;;5095577;28;20059;-59
2023/09/26 14:17:57;;;;;;;1.60;0.90;;;;;;;;;;5095942;28;20408;-58
2023/09/26 14:20:24;;;;;;;2.53;1.20;;;;;;;;;;5095636;28;20409;-58
2023/09/26 14:22:51;;;;;;;1.33;1.00;;;;;;;;;;5095575;28;20052;-58
2023/09/26 14:25:18;;;;;;;2.38;0.90;;;;;;;;;;5088922;28;20052;-58
2023/09/26 14:27:45;;;;;;;2.78;0.90;;;;;;;;;;5075346;28;20052;-58
2023/09/26 14:30:14;;;;;;;1.38;0.80;;;;;;;;;;5086084;28;20422;-58
2023/09/26 14:32:41;;;;;;;2.63;1.10;;;;;;;;;;5094293;28;20061;-59
2023/09/26 14:35:09;;;;;;;2.00;0.77;;;;;;;;;;5076545;28;20501;-59
2023/09/26 14:37:36;;;;;;;1.60;0.80;;;;;;;;;;5075161;28;20057;-59
2023/09/26 14:40:03;;;;;;;1.70;1.00;;;;;;;;;;5075790;28;20052;-59
2023/09/26 14:42:30;;;;;;;1.42;0.90;;;;;;;;;;5075091;28;20488;-58
2023/09/26 14:44:57;;;;;;;2.92;1.10;;;;;;;;;;5074560;28;20053;-58